ADDS METAR Data INFO
IDs: Format: Raw Decoded Include TAF

Data at: 2113 UTC 22 Oct 2017

PHLI 222053Z 10006KT 10SM SCT030 28/22 A3007 RMK AO2 SLP179 T02830222 50002 $
PHLI 221953Z 03005KT 10SM SCT030 28/22 A3008 RMK AO2 SLP183 T02830222 $
PHLI 221853Z 00000KT 10SM SCT025 BKN032 23/21 A3008 RMK AO2 SLP182 T02330211 $
PHLI 221753Z 27005KT 10SM FEW017 22/21 A3006 RMK AO2 SLP176 T02220211 10256 20222 53014 $
PHLI 221653Z 29006KT 10SM SCT021 23/21 A3005 RMK AO2 SLP172 T02280211 $
PHLI 221553Z 29006KT 10SM SCT019 SCT026 BKN038 23/21 A3003 RMK AO2 SLP167 T02280211 $
PHLI 221453Z AUTO 31004KT 10SM BKN020 BKN026 BKN036 23/ A3002 RMK AO2 SLP163 T0228 56006 TSNO $
PHLI 221444Z AUTO 29004KT 10SM SCT020 SCT027 BKN036 23/ A3002 RMK AO2 T0228 TSNO $
PHLI 221353Z AUTO 28005KT 10SM BKN020 BKN037 23/21 A3002 RMK AO2 SLP163 T02330206 TSNO
PHLI 221309Z AUTO 29005KT 10SM BKN021 BKN034 BKN047 23/21 A3003 RMK AO2 T02330206 TSNO
PHLI 221253Z AUTO 27004KT 10SM FEW021 SCT026 BKN034 24/21 A3003 RMK AO2 SLP167 T02440206 TSNO
PHLI 221241Z AUTO 06005KT 10SM FEW019 SCT024 BKN033 26/21 A3004 RMK AO2 T02560211 TSNO
PHLI 221153Z AUTO 06007KT 10SM BKN024 26/21 A3004 RMK AO2 SLP169 70001 T02560211 10261 20256 58009 TSNO
PHLI 221053Z AUTO 06009KT 10SM OVC026 26/21 A3005 RMK AO2 SLP172 T02560206 TSNO
PHLI 221035Z AUTO 07007KT 10SM BKN023 26/21 A3005 RMK AO2 T02560206 TSNO
PHLI 220953Z AUTO 08010KT 10SM FEW023 BKN041 26/21 A3006 RMK AO2 SLP177 T02560206 403000233 TSNO
PHLI 220924Z AUTO 08009KT 10SM FEW024 SCT030 26/21 A3007 RMK AO2 T02560206 TSNO
PHLI 220853Z AUTO 06010KT 10SM BKN024 BKN030 26/21 A3007 RMK AO2 SLP178 T02560206 50006 TSNO
PHLI 220841Z AUTO 06010KT 10SM BKN024 26/21 A3007 RMK AO2 T02560206 TSNO
PHLI 220753Z 06011KT 10SM FEW024 26/20 A3007 RMK AO2 SLP179 LAST T02560200
PHLI 220706Z 05011KT 10SM SCT024 26/20 A3006 RMK AO2 T02560200
PHLI 220653Z 05012KT 10SM BKN024 26/21 A3006 RMK AO2 SLP177 T02560206
PHLI 220610Z 06011KT 10SM SCT025 26/21 A3005 RMK AO2 T02560206
PHLI 220553Z 06014KT 10SM BKN023 26/21 A3005 RMK AO2 SLP172 T02560206 10300 20256 53014
PHLI 220534Z 05013KT 10SM BKN023 26/21 A3004 RMK AO2 T02560206
PHLI 220453Z 04012KT 10SM FEW021 26/21 A3003 RMK AO2 SLP167 T02560206
PHLI 220401Z 05012KT 10SM FEW023 SCT032 26/21 A3002 RMK AO2 T02610206
PHLI 220353Z 05013KT 10SM BKN023 BKN032 26/21 A3002 RMK AO2 SLP161 T02610211
PHLI 220253Z 04012KT 10SM CLR 28/21 A3001 RMK AO2 SLP157 T02780206 55002
PHLI 220153Z 05012KT 10SM CLR 28/20 A3000 RMK AO2 SLP157 T02830200
PHLI 220127Z 05012KT 10SM FEW021 28/21 A3000 RMK AO2 T02830211
PHLI 220053Z 06012KT 10SM BKN026 29/21 A3000 RMK AO2 SLP156 T02890206
PHLI 212353Z 04012KT 10SM FEW024 SCT040 29/21 A3001 RMK AO2 SLP159 60000 T02890206 10300 20244 58021
PHLI 212253Z 06012KT 10SM FEW023 29/21 A3003 RMK AO2 SLP167 T02890211 $
PHLI 212153Z 05014KT 10SM FEW022 29/22 A3005 RMK AO2 SLP174 T02890217 $
PHLI 212053Z 06012KT 10SM CLR 28/22 A3007 RMK AO2 RAB14E23 SLP181 P0000 60000 T02830217 50000 $
PHLI 211953Z 05013KT 10SM FEW019 SCT027 BKN047 28/22 A3008 RMK AO2 SLP183 T02830222 $
PHLI 211948Z 05012KT 10SM FEW019 SCT025 SCT049 28/22 A3008 RMK AO2 $
PHLI 211937Z 05013KT 10SM BKN023 BKN031 27/22 A3008 RMK AO2 T02720217 $
PHLI 211853Z 05012KT 10SM SCT022 27/22 A3007 RMK AO2 SLP180 T02720222 $
PHLI 211753Z 35007KT 10SM BKN018 BKN023 OVC049 25/22 A3006 RMK AO2 RAB12E25 SLP176 P0000 60001 T02500222 10256 20233 53007 $
PHLI 211731Z 03012KT 10SM FEW014 BKN040 OVC049 24/ A3005 RMK AO2 RAB12E25 P0000 T0244 $
PHLI 211722Z 03012KT 3SM -RA FEW014 BKN027 OVC060 24/ A3005 RMK AO2 RAB12 P0000 T0244 $
PHLI 211716Z 05010KT 2 1/2SM +RA FEW014 BKN030 OVC065 24/ A3005 RMK AO2 VIS 1V5 RAB12 P0000 T0244 $
PHLI 211712Z 06012KT 6SM -RA FEW014 BKN029 OVC065 24/ A3005 RMK AO2 RAB12 P0000 T0244 $
PHLI 211702Z 03014KT 10SM FEW017 SCT026 BKN035 24/ A3005 RMK AO2 T0244 $
PHLI 211653Z 03014KT 7SM SCT017 BKN024 OVC050 24/22 A3005 RMK AO2 SLP171 T02440222 $
PHLI 211600Z 05015KT 10SM BKN017 BKN022 OVC042 24/22 A3004 RMK AO2 T02440217
PHLI 211553Z AUTO 04016KT 10SM SCT019 OVC042 24/22 A3004 RMK AO2 SLP169 T02440217 TSNO
PHLI 211543Z AUTO 04016KT 10SM SCT016 BKN024 OVC042 24/22 A3004 RMK AO2 T02440217 TSNO
PHLI 211453Z AUTO 05013KT 10SM FEW017 BKN034 OVC050 24/22 A3004 RMK AO2 RAB35E49 SLP168 P0001 60001 T02440222 56011 TSNO
PHLI 211423Z AUTO 05014KT 10SM FEW019 FEW034 SCT048 24/21 A3004 RMK AO2 T02440211 TSNO
PHLI 211353Z AUTO 04016KT 10SM SCT017 BKN023 BKN029 25/22 A3004 RMK AO2 RAB31E41 SLP169 P0000 T02500217 TSNO
PHLI 211335Z AUTO 04010KT 7SM -RA SCT018 BKN023 BKN028 24/22 A3004 RMK AO2 RAB31 P0000 T02440217 TSNO
PHLI 211253Z AUTO 04016KT 10SM FEW021 BKN050 24/22 A3006 RMK AO2 RAE1156B13E23 SLP174 P0000 T02440217 TSNO
PHLI 211203Z AUTO 05015KT 10SM FEW017 FEW024 OVC033 24/22 A3007 RMK AO2 RAE1156 P0000 T02390217 TSNO
PHLI 211153Z AUTO 05019KT 7SM -RA FEW017 OVC026 24/22 A3007 RMK AO2 RAB45 SLP179 P0000 60001 70001 T02440222 10261 20239 58010 TSNO
PHLI 211144Z AUTO 06019G23KT 6SM BR SCT017 BKN026 OVC070 24/22 A3007 RMK AO2 T02440222 TSNO
PHLI 211053Z AUTO 04020KT 10SM FEW018 SCT026 BKN033 24/22 A3009 RMK AO2 PK WND 05026/1039 RAB41E52 SLP186 P0001 T02440217 TSNO
PHLI 211029Z AUTO 04017KT 10SM SCT019 BKN026 BKN031 26/22 A3010 RMK AO2 T02560217 TSNO
PHLI 210953Z AUTO 04018KT 10SM FEW016 FEW031 BKN049 25/21 A3011 RMK AO2 PK WND 06027/0923 RAB20E29 SLP192 P0000 T02500211 403000244 TSNO